sensor_id;sensor_type;location;lat;lon;timestamp;temperature;humidity
13072;DHT22;6602;58.934;11.166;2023-03-24T00:04:07;6.10;99.90
13072;DHT22;6602;58.934;11.166;2023-03-24T00:09:08;6.00;99.90
13072;DHT22;6602;58.934;11.166;2023-03-24T00:14:10;6.10;99.90
13072;DHT22;6602;58.934;11.166;2023-03-24T00:19:23;6.10;99.90
13072;DHT22;6602;58.934;11.166;2023-03-24T00:24:44;6.00;99.90
13072;DHT22;6602;58.934;11.166;2023-03-24T00:29:49;6.00;99.90
13072;DHT22;6602;58.934;11.166;2023-03-24T00:34:50;6.00;99.90
13072;DHT22;6602;58.934;11.166;2023-03-24T00:39:54;6.00;99.90
13072;DHT22;6602;58.934;11.166;2023-03-24T00:44:55;6.00;99.90
13072;DHT22;6602;58.934;11.166;2023-03-24T00:49:56;6.00;99.90
13072;DHT22;6602;58.934;11.166;2023-03-24T00:55:04;6.00;99.90
13072;DHT22;6602;58.934;11.166;2023-03-24T01:00:07;6.00;99.90
13072;DHT22;6602;58.934;11.166;2023-03-24T01:05:20;6.00;99.90
13072;DHT22;6602;58.934;11.166;2023-03-24T01:10:23;6.00;99.90
13072;DHT22;6602;58.934;11.166;2023-03-24T01:15:31;6.10;99.90
13072;DHT22;6602;58.934;11.166;2023-03-24T01:20:33;6.10;99.90
13072;DHT22;6602;58.934;11.166;2023-03-24T01:25:35;6.10;99.90
13072;DHT22;6602;58.934;11.166;2023-03-24T01:30:38;6.10;99.90
13072;DHT22;6602;58.934;11.166;2023-03-24T01:35:42;6.10;99.90
13072;DHT22;6602;58.934;11.166;2023-03-24T01:40:46;6.20;99.90
13072;DHT22;6602;58.934;11.166;2023-03-24T01:45:53;6.20;99.90
13072;DHT22;6602;58.934;11.166;2023-03-24T01:51:04;6.20;99.90
13072;DHT22;6602;58.934;11.166;2023-03-24T01:56:06;6.20;99.90
13072;DHT22;6602;58.934;11.166;2023-03-24T02:01:08;6.10;99.90
13072;DHT22;6602;58.934;11.166;2023-03-24T02:06:10;6.10;99.90
13072;DHT22;6602;58.934;11.166;2023-03-24T02:11:12;6.10;99.90
13072;DHT22;6602;58.934;11.166;2023-03-24T02:27:44;6.00;99.90
13072;DHT22;6602;58.934;11.166;2023-03-24T02:49:34;6.00;99.90
13072;DHT22;6602;58.934;11.166;2023-03-24T02:54:49;6.00;99.90
13072;DHT22;6602;58.934;11.166;2023-03-24T03:00:17;6.00;99.90
13072;DHT22;6602;58.934;11.166;2023-03-24T03:06:05;6.00;99.90
13072;DHT22;6602;58.934;11.166;2023-03-24T03:11:12;6.10;99.90
13072;DHT22;6602;58.934;11.166;2023-03-24T03:16:21;6.00;99.90
13072;DHT22;6602;58.934;11.166;2023-03-24T03:21:29;6.00;99.90
13072;DHT22;6602;58.934;11.166;2023-03-24T03:26:33;6.10;99.90
13072;DHT22;6602;58.934;11.166;2023-03-24T03:31:38;6.10;99.90
13072;DHT22;6602;58.934;11.166;2023-03-24T03:37:07;6.00;99.90
13072;DHT22;6602;58.934;11.166;2023-03-24T03:42:08;6.00;99.90
13072;DHT22;6602;58.934;11.166;2023-03-24T03:47:09;6.00;99.90
13072;DHT22;6602;58.934;11.166;2023-03-24T03:52:10;6.00;99.90
13072;DHT22;6602;58.934;11.166;2023-03-24T03:57:12;6.00;99.90
13072;DHT22;6602;58.934;11.166;2023-03-24T04:08:11;6.10;99.90
13072;DHT22;6602;58.934;11.166;2023-03-24T04:19:02;6.10;99.90
13072;DHT22;6602;58.934;11.166;2023-03-24T04:24:32;6.10;99.90
13072;DHT22;6602;58.934;11.166;2023-03-24T04:29:40;6.10;99.90
13072;DHT22;6602;58.934;11.166;2023-03-24T04:34:49;6.10;99.90
13072;DHT22;6602;58.934;11.166;2023-03-24T04:39:55;6.10;99.90
13072;DHT22;6602;58.934;11.166;2023-03-24T04:44:59;6.10;99.90
13072;DHT22;6602;58.934;11.166;2023-03-24T04:50:06;6.10;99.90
13072;DHT22;6602;58.934;11.166;2023-03-24T05:01:07;6.10;99.90
13072;DHT22;6602;58.934;11.166;2023-03-24T05:06:11;6.10;99.90
13072;DHT22;6602;58.934;11.166;2023-03-24T05:11:12;6.10;99.90
13072;DHT22;6602;58.934;11.166;2023-03-24T05:16:17;6.10;99.90
13072;DHT22;6602;58.934;11.166;2023-03-24T05:21:21;6.00;99.90
13072;DHT22;6602;58.934;11.166;2023-03-24T05:26:24;6.00;99.90
13072;DHT22;6602;58.934;11.166;2023-03-24T05:31:31;6.00;99.90
13072;DHT22;6602;58.934;11.166;2023-03-24T05:36:32;6.10;99.90
13072;DHT22;6602;58.934;11.166;2023-03-24T05:41:37;6.10;99.90
13072;DHT22;6602;58.934;11.166;2023-03-24T05:46:38;6.10;99.90
13072;DHT22;6602;58.934;11.166;2023-03-24T05:51:42;6.10;99.90
13072;DHT22;6602;58.934;11.166;2023-03-24T05:56:46;6.10;99.90
13072;DHT22;6602;58.934;11.166;2023-03-24T06:01:50;6.20;99.90
13072;DHT22;6602;58.934;11.166;2023-03-24T06:06:56;6.20;99.90
13072;DHT22;6602;58.934;11.166;2023-03-24T06:12:01;6.20;99.90
13072;DHT22;6602;58.934;11.166;2023-03-24T06:17:07;6.30;99.90
13072;DHT22;6602;58.934;11.166;2023-03-24T06:22:07;6.30;99.90
13072;DHT22;6602;58.934;11.166;2023-03-24T06:27:11;6.30;99.90
13072;DHT22;6602;58.934;11.166;2023-03-24T06:32:13;6.30;99.90
13072;DHT22;6602;58.934;11.166;2023-03-24T06:37:22;6.30;99.90
13072;DHT22;6602;58.934;11.166;2023-03-24T06:42:29;6.30;99.90
13072;DHT22;6602;58.934;11.166;2023-03-24T06:47:30;6.30;99.90
13072;DHT22;6602;58.934;11.166;2023-03-24T06:52:34;6.30;99.90
13072;DHT22;6602;58.934;11.166;2023-03-24T06:57:35;6.40;99.90
13072;DHT22;6602;58.934;11.166;2023-03-24T07:02:42;6.40;99.90
13072;DHT22;6602;58.934;11.166;2023-03-24T07:07:47;6.40;99.90
13072;DHT22;6602;58.934;11.166;2023-03-24T07:12:49;6.40;99.90
13072;DHT22;6602;58.934;11.166;2023-03-24T07:17:53;6.40;99.90
13072;DHT22;6602;58.934;11.166;2023-03-24T07:22:57;6.40;99.90
13072;DHT22;6602;58.934;11.166;2023-03-24T07:28:00;6.40;99.90
13072;DHT22;6602;58.934;11.166;2023-03-24T07:33:06;6.40;99.90
13072;DHT22;6602;58.934;11.166;2023-03-24T07:38:08;6.40;99.90
13072;DHT22;6602;58.934;11.166;2023-03-24T07:43:09;6.40;99.90
13072;DHT22;6602;58.934;11.166;2023-03-24T07:48:10;6.40;99.90
13072;DHT22;6602;58.934;11.166;2023-03-24T07:53:14;6.40;99.90
13072;DHT22;6602;58.934;11.166;2023-03-24T07:58:19;6.40;99.90
13072;DHT22;6602;58.934;11.166;2023-03-24T08:03:24;6.40;99.90
13072;DHT22;6602;58.934;11.166;2023-03-24T08:08:27;6.40;99.90
13072;DHT22;6602;58.934;11.166;2023-03-24T08:13:28;6.40;99.90
13072;DHT22;6602;58.934;11.166;2023-03-24T08:18:32;6.40;99.90
13072;DHT22;6602;58.934;11.166;2023-03-24T08:23:37;6.40;99.90
13072;DHT22;6602;58.934;11.166;2023-03-24T08:28:41;6.50;99.90
13072;DHT22;6602;58.934;11.166;2023-03-24T08:33:42;6.50;99.90
13072;DHT22;6602;58.934;11.166;2023-03-24T08:38:43;6.50;99.90
13072;DHT22;6602;58.934;11.166;2023-03-24T08:43:44;6.50;99.90
13072;DHT22;6602;58.934;11.166;2023-03-24T08:48:50;6.60;99.90
13072;DHT22;6602;58.934;11.166;2023-03-24T08:53:51;6.60;99.90
13072;DHT22;6602;58.934;11.166;2023-03-24T08:58:53;6.60;99.90
13072;DHT22;6602;58.934;11.166;2023-03-24T09:04:01;6.60;99.90
13072;DHT22;6602;58.934;11.166;2023-03-24T09:09:02;6.70;99.90
13072;DHT22;6602;58.934;11.166;2023-03-24T09:14:02;6.70;99.90
13072;DHT22;6602;58.934;11.166;2023-03-24T09:19:04;6.80;99.90
13072;DHT22;6602;58.934;11.166;2023-03-24T09:24:05;6.80;99.90
13072;DHT22;6602;58.934;11.166;2023-03-24T09:29:09;6.80;99.90
13072;DHT22;6602;58.934;11.166;2023-03-24T09:34:26;6.80;99.90
13072;DHT22;6602;58.934;11.166;2023-03-24T09:39:30;6.90;99.90
13072;DHT22;6602;58.934;11.166;2023-03-24T09:44:37;6.90;99.90
13072;DHT22;6602;58.934;11.166;2023-03-24T09:49:41;6.90;99.90
13072;DHT22;6602;58.934;11.166;2023-03-24T09:54:58;7.00;99.90
13072;DHT22;6602;58.934;11.166;2023-03-24T10:00:22;7.00;99.90
13072;DHT22;6602;58.934;11.166;2023-03-24T10:05:32;7.00;99.90
13072;DHT22;6602;58.934;11.166;2023-03-24T10:10:36;7.00;99.90
13072;DHT22;6602;58.934;11.166;2023-03-24T10:15:44;7.10;99.90
13072;DHT22;6602;58.934;11.166;2023-03-24T10:21:05;7.10;99.90
13072;DHT22;6602;58.934;11.166;2023-03-24T10:26:48;7.20;99.90
13072;DHT22;6602;58.934;11.166;2023-03-24T10:31:55;7.20;99.90
13072;DHT22;6602;58.934;11.166;2023-03-24T10:36:59;7.20;99.90
13072;DHT22;6602;58.934;11.166;2023-03-24T10:42:00;7.20;99.90
13072;DHT22;6602;58.934;11.166;2023-03-24T10:47:04;7.20;99.90
13072;DHT22;6602;58.934;11.166;2023-03-24T10:52:08;7.20;99.90
13072;DHT22;6602;58.934;11.166;2023-03-24T10:57:17;7.30;99.90
13072;DHT22;6602;58.934;11.166;2023-03-24T11:02:25;7.30;99.90
13072;DHT22;6602;58.934;11.166;2023-03-24T11:07:53;7.30;99.90
13072;DHT22;6602;58.934;11.166;2023-03-24T11:23:22;7.30;99.90
13072;DHT22;6602;58.934;11.166;2023-03-24T11:28:26;7.30;99.90
13072;DHT22;6602;58.934;11.166;2023-03-24T11:33:30;7.40;99.90
13072;DHT22;6602;58.934;11.166;2023-03-24T11:38:33;7.40;99.90
13072;DHT22;6602;58.934;11.166;2023-03-24T11:43:38;7.40;99.90
13072;DHT22;6602;58.934;11.166;2023-03-24T11:48:59;7.40;99.90
13072;DHT22;6602;58.934;11.166;2023-03-24T11:54:16;7.50;99.90
13072;DHT22;6602;58.934;11.166;2023-03-24T11:59:27;7.50;99.90
13072;DHT22;6602;58.934;11.166;2023-03-24T12:15:53;7.50;99.90
13072;DHT22;6602;58.934;11.166;2023-03-24T12:26:29;7.40;99.90
13072;DHT22;6602;58.934;11.166;2023-03-24T12:42:15;7.40;99.90
13072;DHT22;6602;58.934;11.166;2023-03-24T13:03:49;7.20;99.90
13072;DHT22;6602;58.934;11.166;2023-03-24T13:14:17;7.10;99.90
13072;DHT22;6602;58.934;11.166;2023-03-24T13:19:23;7.00;99.90
13072;DHT22;6602;58.934;11.166;2023-03-24T13:24:25;7.00;99.90
13072;DHT22;6602;58.934;11.166;2023-03-24T13:34:47;6.80;99.90
13072;DHT22;6602;58.934;11.166;2023-03-24T13:39:59;6.80;99.90
13072;DHT22;6602;58.934;11.166;2023-03-24T13:45:05;6.80;99.90
13072;DHT22;6602;58.934;11.166;2023-03-24T13:50:11;6.70;99.90
13072;DHT22;6602;58.934;11.166;2023-03-24T13:55:22;6.70;99.90
13072;DHT22;6602;58.934;11.166;2023-03-24T14:00:28;6.50;99.90
13072;DHT22;6602;58.934;11.166;2023-03-24T14:05:55;6.50;99.90
13072;DHT22;6602;58.934;11.166;2023-03-24T14:10:57;6.30;99.90
13072;DHT22;6602;58.934;11.166;2023-03-24T14:21:40;6.20;99.90
13072;DHT22;6602;58.934;11.166;2023-03-24T14:26:43;6.10;99.90
13072;DHT22;6602;58.934;11.166;2023-03-24T14:31:49;5.90;99.90
13072;DHT22;6602;58.934;11.166;2023-03-24T14:37:01;5.80;99.90
13072;DHT22;6602;58.934;11.166;2023-03-24T14:47:37;5.70;99.90
13072;DHT22;6602;58.934;11.166;2023-03-24T14:52:51;5.70;99.90
13072;DHT22;6602;58.934;11.166;2023-03-24T14:57:59;5.80;99.90
13072;DHT22;6602;58.934;11.166;2023-03-24T15:03:29;5.80;99.90
13072;DHT22;6602;58.934;11.166;2023-03-24T15:08:36;5.90;99.90
13072;DHT22;6602;58.934;11.166;2023-03-24T15:13:53;5.80;99.90
13072;DHT22;6602;58.934;11.166;2023-03-24T15:23:58;5.80;99.90
13072;DHT22;6602;58.934;11.166;2023-03-24T15:29:04;5.80;99.90
13072;DHT22;6602;58.934;11.166;2023-03-24T15:34:53;5.80;99.90
13072;DHT22;6602;58.934;11.166;2023-03-24T15:39:36;5.70;99.90
13072;DHT22;6602;58.934;11.166;2023-03-24T15:44:39;5.70;99.90
13072;DHT22;6602;58.934;11.166;2023-03-24T15:49:50;5.70;99.90
13072;DHT22;6602;58.934;11.166;2023-03-24T15:54:54;5.70;99.90
13072;DHT22;6602;58.934;11.166;2023-03-24T16:05:02;5.60;99.90
13072;DHT22;6602;58.934;11.166;2023-03-24T16:10:05;5.60;99.90
13072;DHT22;6602;58.934;11.166;2023-03-24T16:15:11;5.60;99.90
13072;DHT22;6602;58.934;11.166;2023-03-24T16:20:19;5.60;99.90
13072;DHT22;6602;58.934;11.166;2023-03-24T16:25:21;5.60;99.90
13072;DHT22;6602;58.934;11.166;2023-03-24T16:30:23;5.60;99.90
13072;DHT22;6602;58.934;11.166;2023-03-24T16:35:25;5.50;99.90
13072;DHT22;6602;58.934;11.166;2023-03-24T16:40:38;5.50;99.90
13072;DHT22;6602;58.934;11.166;2023-03-24T16:45:40;5.50;99.90
13072;DHT22;6602;58.934;11.166;2023-03-24T16:50:44;5.50;99.90
13072;DHT22;6602;58.934;11.166;2023-03-24T16:55:46;5.50;99.90
13072;DHT22;6602;58.934;11.166;2023-03-24T17:00:47;5.40;99.90
13072;DHT22;6602;58.934;11.166;2023-03-24T17:05:49;5.40;99.90
13072;DHT22;6602;58.934;11.166;2023-03-24T17:10:52;5.40;99.90
13072;DHT22;6602;58.934;11.166;2023-03-24T17:15:57;5.40;99.90
13072;DHT22;6602;58.934;11.166;2023-03-24T17:20:59;5.40;99.90
13072;DHT22;6602;58.934;11.166;2023-03-24T17:26:00;5.40;99.90
13072;DHT22;6602;58.934;11.166;2023-03-24T17:31:01;5.40;99.90
13072;DHT22;6602;58.934;11.166;2023-03-24T17:36:04;5.40;99.90
13072;DHT22;6602;58.934;11.166;2023-03-24T17:41:07;5.40;99.90
13072;DHT22;6602;58.934;11.166;2023-03-24T17:46:08;5.40;99.90
13072;DHT22;6602;58.934;11.166;2023-03-24T17:51:08;5.40;99.90
13072;DHT22;6602;58.934;11.166;2023-03-24T17:56:12;5.40;99.90
13072;DHT22;6602;58.934;11.166;2023-03-24T18:01:13;5.40;99.90
13072;DHT22;6602;58.934;11.166;2023-03-24T18:06:21;5.20;99.90
13072;DHT22;6602;58.934;11.166;2023-03-24T18:11:22;5.20;99.90
13072;DHT22;6602;58.934;11.166;2023-03-24T18:16:23;5.20;99.90
13072;DHT22;6602;58.934;11.166;2023-03-24T18:21:27;5.10;99.90
13072;DHT22;6602;58.934;11.166;2023-03-24T18:26:29;5.20;99.90
13072;DHT22;6602;58.934;11.166;2023-03-24T18:31:30;5.20;99.90
13072;DHT22;6602;58.934;11.166;2023-03-24T18:36:32;5.20;99.90
13072;DHT22;6602;58.934;11.166;2023-03-24T18:41:36;5.20;99.90
13072;DHT22;6602;58.934;11.166;2023-03-24T18:46:37;5.20;99.90
13072;DHT22;6602;58.934;11.166;2023-03-24T18:51:39;5.20;99.90
13072;DHT22;6602;58.934;11.166;2023-03-24T18:56:41;5.20;99.90
13072;DHT22;6602;58.934;11.166;2023-03-24T19:01:42;5.20;99.90
13072;DHT22;6602;58.934;11.166;2023-03-24T19:06:46;5.10;99.90
13072;DHT22;6602;58.934;11.166;2023-03-24T19:11:49;5.10;99.90
13072;DHT22;6602;58.934;11.166;2023-03-24T19:16:51;5.10;99.90
13072;DHT22;6602;58.934;11.166;2023-03-24T19:21:52;5.10;99.90
13072;DHT22;6602;58.934;11.166;2023-03-24T19:26:53;5.10;99.90
13072;DHT22;6602;58.934;11.166;2023-03-24T19:31:54;5.10;99.90
13072;DHT22;6602;58.934;11.166;2023-03-24T19:36:54;5.10;99.90
13072;DHT22;6602;58.934;11.166;2023-03-24T19:41:56;5.10;99.90
13072;DHT22;6602;58.934;11.166;2023-03-24T19:46:56;5.10;99.90
13072;DHT22;6602;58.934;11.166;2023-03-24T19:52:01;5.10;99.90
13072;DHT22;6602;58.934;11.166;2023-03-24T19:57:04;5.20;99.90
13072;DHT22;6602;58.934;11.166;2023-03-24T20:02:05;5.20;99.90
13072;DHT22;6602;58.934;11.166;2023-03-24T20:07:11;5.10;99.90
13072;DHT22;6602;58.934;11.166;2023-03-24T20:12:13;5.10;99.90
13072;DHT22;6602;58.934;11.166;2023-03-24T20:17:18;5.10;99.90
13072;DHT22;6602;58.934;11.166;2023-03-24T20:22:24;5.10;99.90
13072;DHT22;6602;58.934;11.166;2023-03-24T20:27:25;5.10;99.90
13072;DHT22;6602;58.934;11.166;2023-03-24T20:32:25;5.10;99.90
13072;DHT22;6602;58.934;11.166;2023-03-24T20:37:28;5.10;99.90
13072;DHT22;6602;58.934;11.166;2023-03-24T20:42:32;5.10;99.90
13072;DHT22;6602;58.934;11.166;2023-03-24T20:47:33;5.10;99.90
13072;DHT22;6602;58.934;11.166;2023-03-24T20:52:35;5.10;99.90
13072;DHT22;6602;58.934;11.166;2023-03-24T20:57:35;5.10;99.90
13072;DHT22;6602;58.934;11.166;2023-03-24T21:02:41;5.10;99.90
13072;DHT22;6602;58.934;11.166;2023-03-24T21:07:42;5.10;99.90
13072;DHT22;6602;58.934;11.166;2023-03-24T21:12:45;5.10;99.90
13072;DHT22;6602;58.934;11.166;2023-03-24T21:17:49;5.10;99.90
13072;DHT22;6602;58.934;11.166;2023-03-24T21:22:50;5.10;99.90
13072;DHT22;6602;58.934;11.166;2023-03-24T21:27:54;5.00;99.90
13072;DHT22;6602;58.934;11.166;2023-03-24T21:32:58;5.00;99.90
13072;DHT22;6602;58.934;11.166;2023-03-24T21:38:02;4.90;99.90
13072;DHT22;6602;58.934;11.166;2023-03-24T21:43:06;4.90;99.90
13072;DHT22;6602;58.934;11.166;2023-03-24T21:48:09;4.90;99.90
13072;DHT22;6602;58.934;11.166;2023-03-24T21:53:12;4.80;99.90
13072;DHT22;6602;58.934;11.166;2023-03-24T21:58:18;4.80;99.90
13072;DHT22;6602;58.934;11.166;2023-03-24T22:03:18;4.80;99.90
13072;DHT22;6602;58.934;11.166;2023-03-24T22:08:21;4.80;99.90
13072;DHT22;6602;58.934;11.166;2023-03-24T22:13:28;4.80;99.90
13072;DHT22;6602;58.934;11.166;2023-03-24T22:18:32;4.80;99.90
13072;DHT22;6602;58.934;11.166;2023-03-24T22:23:35;4.80;99.90
13072;DHT22;6602;58.934;11.166;2023-03-24T22:28:39;4.80;99.90
13072;DHT22;6602;58.934;11.166;2023-03-24T22:33:40;4.80;99.90
13072;DHT22;6602;58.934;11.166;2023-03-24T22:38:42;4.80;99.90
13072;DHT22;6602;58.934;11.166;2023-03-24T22:43:43;4.80;99.90
13072;DHT22;6602;58.934;11.166;2023-03-24T22:48:47;4.80;99.90
13072;DHT22;6602;58.934;11.166;2023-03-24T22:53:47;4.80;99.90
13072;DHT22;6602;58.934;11.166;2023-03-24T22:58:50;4.80;99.90
13072;DHT22;6602;58.934;11.166;2023-03-24T23:03:52;4.80;99.90
13072;DHT22;6602;58.934;11.166;2023-03-24T23:08:53;4.80;99.90
13072;DHT22;6602;58.934;11.166;2023-03-24T23:13:54;4.80;99.90
13072;DHT22;6602;58.934;11.166;2023-03-24T23:19:02;4.80;99.90
13072;DHT22;6602;58.934;11.166;2023-03-24T23:24:03;4.80;99.90
13072;DHT22;6602;58.934;11.166;2023-03-24T23:29:04;4.80;99.90
13072;DHT22;6602;58.934;11.166;2023-03-24T23:34:04;4.80;99.90
13072;DHT22;6602;58.934;11.166;2023-03-24T23:39:06;4.80;99.90
13072;DHT22;6602;58.934;11.166;2023-03-24T23:44:08;4.80;99.90
13072;DHT22;6602;58.934;11.166;2023-03-24T23:49:09;4.80;99.90
13072;DHT22;6602;58.934;11.166;2023-03-24T23:54:10;4.80;99.90
13072;DHT22;6602;58.934;11.166;2023-03-24T23:59:11;4.80;99.90
